createdAt,value
2022-07-25T00:00:10.815Z,63.56
2022-07-25T00:01:34.429Z,63.39
2022-07-25T00:02:39.270Z,63.24
2022-07-25T00:03:43.144Z,63.12
2022-07-25T00:04:46.767Z,63.03
2022-07-25T00:05:51.333Z,62.86
2022-07-25T00:06:55.781Z,62.79
2022-07-25T00:07:59.297Z,62.71
2022-07-25T00:09:02.995Z,62.74
2022-07-25T00:10:07.674Z,62.67
2022-07-25T00:11:11.394Z,62.82
2022-07-25T00:12:15.065Z,62.89
2022-07-25T00:13:18.423Z,63.04
2022-07-25T00:14:22.281Z,63.24
2022-07-25T00:15:25.622Z,63.37
2022-07-25T00:16:29.108Z,63.42
2022-07-25T00:17:32.928Z,63.61
2022-07-25T00:18:36.545Z,63.51
2022-07-25T00:19:41.277Z,63.46
2022-07-25T00:20:45.130Z,63.66
2022-07-25T00:21:50.676Z,63.70
2022-07-25T00:22:54.037Z,63.88
2022-07-25T00:23:58.717Z,63.97
2022-07-25T00:25:02.570Z,63.97
2022-07-25T00:26:07.093Z,64.00
2022-07-25T00:27:10.854Z,63.99
2022-07-25T00:28:14.294Z,64.07
2022-07-25T00:29:17.878Z,64.03
2022-07-25T00:30:21.632Z,64.10
2022-07-25T00:31:27.075Z,63.96
2022-07-25T00:32:30.164Z,64.15
2022-07-25T00:33:33.822Z,64.13
2022-07-25T00:34:37.089Z,64.10
2022-07-25T00:35:40.444Z,64.13
2022-07-25T00:36:44.148Z,64.01
2022-07-25T00:37:47.866Z,64.11
2022-07-25T00:38:51.360Z,63.96
2022-07-25T00:39:55.231Z,63.97
2022-07-25T00:40:59.170Z,63.92
2022-07-25T00:42:03.076Z,63.86
2022-07-25T00:43:07.815Z,63.96
2022-07-25T00:44:40.166Z,63.98
2022-07-25T00:45:44.001Z,63.96
2022-07-25T00:46:47.579Z,64.13
2022-07-25T00:47:51.159Z,64.05
2022-07-25T00:48:55.035Z,64.08
2022-07-25T00:49:59.208Z,64.19
2022-07-25T00:51:04.077Z,64.36
2022-07-25T00:52:07.851Z,64.45
2022-07-25T00:53:11.944Z,64.49
2022-07-25T00:54:15.734Z,64.52
2022-07-25T00:55:20.539Z,64.47
2022-07-25T00:56:25.285Z,64.49
2022-07-25T00:57:28.657Z,64.33
2022-07-25T00:58:33.004Z,64.39
2022-07-25T00:59:36.449Z,64.38
2022-07-25T01:00:40.235Z,64.37
2022-07-25T01:01:46.262Z,64.58
2022-07-25T01:02:50.794Z,64.70
2022-07-25T01:03:54.530Z,64.91
2022-07-25T01:04:59.056Z,65.02
2022-07-25T01:06:02.953Z,64.95
2022-07-25T01:07:07.515Z,64.96
2022-07-25T01:08:11.303Z,64.92
2022-07-25T01:09:15.166Z,64.86
2022-07-25T01:10:18.738Z,64.87
2022-07-25T01:11:22.908Z,64.62
2022-07-25T01:12:26.270Z,64.58
2022-07-25T01:13:33.439Z,64.44
2022-07-25T01:14:37.110Z,64.52
2022-07-25T01:15:40.868Z,64.52
2022-07-25T01:16:44.173Z,64.31
2022-07-25T01:17:48.345Z,64.41
2022-07-25T01:18:51.807Z,64.44
2022-07-25T01:19:55.366Z,64.41
2022-07-25T01:20:58.940Z,64.29
2022-07-25T01:22:03.771Z,64.19
2022-07-25T01:23:07.078Z,64.31
2022-07-25T01:24:11.421Z,64.43
2022-07-25T01:25:15.978Z,64.56
2022-07-25T01:27:25.740Z,64.68
2022-07-25T01:28:29.596Z,64.70
2022-07-25T01:29:33.548Z,64.92
2022-07-25T01:30:39.936Z,65.14
2022-07-25T01:31:43.744Z,65.10
2022-07-25T01:32:47.843Z,65.18
2022-07-25T01:33:51.342Z,65.10
2022-07-25T01:34:54.880Z,65.10
2022-07-25T01:35:58.823Z,64.98
2022-07-25T01:37:03.038Z,64.87
2022-07-25T01:38:08.087Z,64.86
2022-07-25T01:39:11.865Z,64.96
2022-07-25T01:40:17.560Z,64.97
2022-07-25T01:41:22.913Z,65.06
2022-07-25T01:42:29.006Z,65.03
2022-07-25T01:43:35.332Z,65.19
2022-07-25T01:44:40.727Z,65.39
2022-07-25T01:45:46.303Z,65.49
2022-07-25T01:46:51.563Z,65.34
2022-07-25T01:47:56.591Z,65.28
2022-07-25T01:49:02.554Z,65.31
2022-07-25T01:50:07.787Z,65.35
2022-07-25T01:51:12.477Z,65.26
2022-07-25T01:52:18.734Z,65.25
2022-07-25T01:53:23.135Z,65.18
2022-07-25T01:54:30.148Z,65.25
2022-07-25T01:55:35.280Z,65.28
2022-07-25T01:56:46.948Z,65.19
2022-07-25T01:57:52.061Z,65.18
2022-07-25T01:58:56.348Z,65.24
2022-07-25T02:00:02.158Z,65.27
2022-07-25T02:01:07.752Z,65.51
2022-07-25T02:02:12.142Z,65.61
2022-07-25T02:03:30.823Z,65.43
2022-07-25T02:04:36.066Z,65.52
2022-07-25T02:05:39.787Z,65.57
2022-07-25T02:06:43.614Z,65.57
2022-07-25T02:07:47.186Z,65.68
2022-07-25T02:08:50.809Z,65.66
2022-07-25T02:09:56.847Z,65.68
2022-07-25T02:11:01.531Z,65.69
2022-07-25T02:12:07.691Z,65.66
2022-07-25T02:13:11.290Z,65.61
2022-07-25T02:14:15.678Z,65.73
2022-07-25T02:15:19.668Z,65.68
2022-07-25T02:16:29.061Z,65.63
2022-07-25T02:17:33.101Z,65.63
2022-07-25T02:18:37.041Z,65.70
2022-07-25T02:19:41.100Z,65.84
2022-07-25T02:20:44.675Z,65.93
2022-07-25T02:21:51.157Z,66.14
2022-07-25T02:22:54.967Z,66.08
2022-07-25T02:23:58.587Z,66.21
2022-07-25T02:25:02.170Z,66.24
2022-07-25T02:26:05.828Z,66.23
2022-07-25T02:27:09.765Z,66.29
2022-07-25T02:28:15.228Z,66.58
2022-07-25T02:29:18.738Z,66.55
2022-07-25T02:30:26.552Z,66.68
2022-07-25T02:31:29.996Z,66.73
2022-07-25T02:32:33.283Z,66.86
2022-07-25T02:33:37.442Z,66.68
2022-07-25T02:34:40.836Z,66.68
2022-07-25T02:35:44.558Z,66.47
2022-07-25T02:36:47.999Z,66.35
2022-07-25T02:37:51.441Z,66.34
2022-07-25T02:38:54.893Z,66.33
2022-07-25T02:39:58.498Z,66.17
2022-07-25T02:41:01.963Z,66.13
2022-07-25T02:42:05.850Z,66.04
2022-07-25T02:43:09.175Z,66.00
2022-07-25T02:44:12.657Z,66.00
2022-07-25T02:45:16.180Z,65.90
2022-07-25T02:46:20.247Z,65.89
2022-07-25T02:47:23.960Z,66.00
2022-07-25T02:48:27.700Z,66.08
2022-07-25T02:49:31.234Z,66.11
2022-07-25T02:50:35.302Z,66.08
2022-07-25T02:51:38.639Z,66.16
2022-07-25T02:52:42.243Z,66.19
2022-07-25T02:53:57.295Z,66.22
2022-07-25T02:55:07.378Z,66.13
2022-07-25T02:56:13.540Z,66.22
2022-07-25T02:57:17.781Z,66.17
2022-07-25T02:58:21.215Z,66.16
2022-07-25T02:59:24.803Z,66.20
2022-07-25T03:00:36.586Z,66.23
2022-07-25T03:01:40.186Z,66.42
2022-07-25T03:02:44.297Z,66.44
2022-07-25T03:03:51.045Z,66.38
2022-07-25T03:04:54.558Z,66.31
2022-07-25T03:05:57.970Z,66.55
2022-07-25T03:07:01.259Z,66.60
2022-07-25T03:08:04.994Z,66.50
2022-07-25T03:09:08.308Z,66.54
2022-07-25T03:10:13.457Z,66.67
2022-07-25T03:11:17.414Z,66.64
2022-07-25T03:12:21.373Z,66.62
2022-07-25T03:13:25.182Z,66.76
2022-07-25T03:14:28.872Z,66.78
2022-07-25T03:15:32.503Z,66.72
2022-07-25T03:16:37.153Z,66.64
2022-07-25T03:17:41.328Z,66.32
2022-07-25T03:18:44.579Z,66.12
2022-07-25T03:19:47.874Z,65.90
2022-07-25T03:20:51.189Z,65.71
2022-07-25T03:21:54.752Z,65.63
2022-07-25T03:22:58.054Z,65.59
2022-07-25T03:24:01.269Z,65.73
2022-07-25T03:25:05.709Z,65.88
2022-07-25T03:26:19.099Z,65.94
2022-07-25T03:27:22.580Z,66.17
2022-07-25T03:28:26.380Z,66.29
2022-07-25T03:29:29.891Z,66.52
2022-07-25T03:30:33.210Z,66.51
2022-07-25T03:31:36.751Z,66.67
2022-07-25T03:32:40.949Z,66.86
2022-07-25T03:33:44.403Z,66.78
2022-07-25T03:34:47.750Z,66.79
2022-07-25T03:35:51.295Z,66.77
2022-07-25T03:36:54.603Z,66.81
2022-07-25T03:38:00.699Z,66.74
2022-07-25T03:39:05.272Z,66.66
2022-07-25T03:40:09.448Z,66.48
2022-07-25T03:41:13.914Z,66.35
2022-07-25T03:42:17.423Z,66.23
2022-07-25T03:43:20.998Z,66.23
2022-07-25T03:44:31.542Z,66.32
2022-07-25T03:45:35.496Z,66.19
2022-07-25T03:46:39.177Z,66.18
2022-07-25T03:47:42.700Z,66.24
2022-07-25T03:48:46.036Z,66.40
2022-07-25T03:49:49.453Z,66.51
2022-07-25T03:50:57.121Z,66.62
2022-07-25T03:52:01.318Z,66.77
2022-07-25T03:53:04.903Z,66.87
2022-07-25T03:54:13.789Z,66.91
2022-07-25T03:55:17.337Z,66.92
2022-07-25T03:56:21.949Z,66.93
2022-07-25T03:57:25.932Z,67.15
2022-07-25T03:58:29.310Z,67.21
2022-07-25T03:59:32.758Z,67.17
2022-07-25T04:00:38.097Z,67.22
2022-07-25T04:01:42.597Z,67.22
2022-07-25T04:02:46.199Z,67.39
2022-07-25T04:03:49.679Z,67.32
2022-07-25T04:04:53.566Z,67.36
2022-07-25T04:05:57.013Z,67.45
2022-07-25T04:07:00.584Z,67.44
2022-07-25T04:08:04.470Z,67.36
2022-07-25T04:09:11.540Z,67.54
2022-07-25T04:10:14.974Z,67.42
2022-07-25T04:11:18.598Z,67.31
2022-07-25T04:12:22.201Z,67.31
2022-07-25T04:13:26.192Z,67.30
2022-07-25T04:14:29.566Z,67.19
2022-07-25T04:15:33.564Z,67.09
2022-07-25T04:16:37.587Z,67.07
2022-07-25T04:17:43.562Z,66.90
2022-07-25T04:18:47.574Z,66.87
2022-07-25T04:19:55.840Z,66.75
2022-07-25T04:21:01.990Z,66.89
2022-07-25T04:22:05.479Z,66.90
2022-07-25T04:23:08.742Z,66.90
2022-07-25T04:24:12.317Z,67.11
2022-07-25T04:25:16.437Z,67.18
2022-07-25T04:26:20.689Z,67.19
2022-07-25T04:27:24.376Z,67.29
2022-07-25T04:28:28.179Z,67.52
2022-07-25T04:29:31.530Z,67.72
2022-07-25T04:30:35.028Z,67.50
2022-07-25T04:31:40.677Z,67.58
2022-07-25T04:32:44.278Z,67.64
2022-07-25T04:33:47.714Z,67.68
2022-07-25T04:34:52.534Z,67.82
2022-07-25T04:35:56.268Z,67.88
2022-07-25T04:36:59.816Z,68.04
2022-07-25T04:38:04.294Z,68.07
2022-07-25T04:39:09.962Z,68.05
2022-07-25T04:40:13.874Z,68.11
2022-07-25T04:41:17.316Z,68.39
2022-07-25T04:42:20.728Z,68.30
2022-07-25T04:43:24.832Z,68.41
2022-07-25T04:44:28.627Z,68.46
2022-07-25T04:45:33.448Z,68.73
2022-07-25T04:46:37.244Z,68.71
2022-07-25T04:47:41.109Z,68.76
2022-07-25T04:48:46.190Z,68.93
2022-07-25T04:49:49.758Z,68.91
2022-07-25T04:50:53.821Z,69.13
2022-07-25T04:51:57.417Z,69.24
2022-07-25T04:53:00.826Z,69.23
2022-07-25T04:54:05.153Z,69.28
2022-07-25T04:55:09.226Z,69.49
2022-07-25T04:56:12.954Z,69.58
2022-07-25T04:57:16.446Z,69.54
2022-07-25T04:58:19.969Z,69.45
2022-07-25T04:59:23.342Z,69.60
2022-07-25T05:00:27.208Z,69.70
2022-07-25T05:01:30.806Z,69.66
2022-07-25T05:02:35.047Z,69.91
2022-07-25T05:03:39.212Z,69.83
2022-07-25T05:04:45.312Z,69.90
2022-07-25T05:05:49.239Z,69.85
2022-07-25T05:06:52.766Z,69.95
2022-07-25T05:07:58.101Z,70.10
2022-07-25T05:09:01.520Z,70.10
2022-07-25T05:10:05.898Z,70.14
2022-07-25T05:11:10.402Z,70.44
2022-07-25T05:12:14.258Z,70.30
2022-07-25T05:13:17.821Z,70.31
2022-07-25T05:14:21.295Z,70.35
2022-07-25T05:15:25.215Z,70.41
2022-07-25T05:16:28.895Z,70.53
2022-07-25T05:17:32.657Z,70.84
2022-07-25T05:18:36.076Z,70.65
2022-07-25T05:19:39.779Z,70.97
2022-07-25T05:20:46.647Z,70.81
2022-07-25T05:21:50.794Z,71.07
2022-07-25T05:22:54.651Z,71.14
2022-07-25T05:23:58.120Z,71.26
2022-07-25T05:25:02.773Z,71.25
2022-07-25T05:26:06.599Z,71.04
2022-07-25T05:27:10.239Z,71.11
2022-07-25T05:28:15.271Z,71.02
2022-07-25T05:29:18.940Z,70.82
2022-07-25T05:30:25.255Z,70.69
2022-07-25T05:31:28.954Z,70.40
2022-07-25T05:32:32.800Z,70.24
2022-07-25T05:33:36.976Z,69.97
2022-07-25T05:34:40.937Z,69.77
2022-07-25T05:35:44.932Z,69.64
2022-07-25T05:36:48.692Z,69.64
2022-07-25T05:37:52.289Z,69.71
2022-07-25T05:38:55.816Z,69.72
2022-07-25T05:39:59.530Z,69.90
2022-07-25T05:41:03.153Z,70.19
2022-07-25T05:42:08.268Z,70.05
2022-07-25T05:43:11.950Z,70.18
2022-07-25T05:44:15.477Z,70.25
2022-07-25T05:45:18.930Z,70.17
2022-07-25T05:47:13.837Z,70.10
2022-07-25T05:48:21.919Z,70.17
2022-07-25T05:49:25.841Z,70.08
2022-07-25T05:50:32.665Z,70.06
2022-07-25T05:53:11.530Z,70.03
2022-07-25T05:54:22.557Z,70.13
2022-07-25T05:55:26.300Z,69.74
2022-07-25T05:56:30.462Z,69.24
2022-07-25T05:57:40.386Z,69.40
2022-07-25T05:58:43.908Z,69.38
2022-07-25T06:00:16.928Z,69.29
2022-07-25T06:01:41.356Z,69.07
2022-07-25T06:02:50.381Z,68.89
2022-07-25T06:03:53.842Z,68.62
2022-07-25T06:04:59.780Z,68.49
2022-07-25T06:06:03.998Z,68.28
2022-07-25T06:07:09.912Z,68.31
2022-07-25T06:08:16.514Z,68.48
2022-07-25T06:09:23.243Z,68.59
2022-07-25T06:10:27.563Z,68.45
2022-07-25T06:14:48.052Z,69.11
2022-07-25T06:15:51.546Z,69.13
2022-07-25T06:17:00.880Z,69.58
2022-07-25T06:18:07.558Z,69.39
2022-07-25T06:19:11.187Z,69.20
2022-07-25T06:21:44.593Z,68.83
2022-07-25T06:23:00.170Z,68.71
2022-07-25T06:24:08.118Z,68.31
2022-07-25T06:25:12.931Z,68.18
2022-07-25T06:26:26.372Z,68.16
2022-07-25T06:27:39.643Z,68.24
2022-07-25T06:28:44.362Z,67.70
2022-07-25T06:29:47.980Z,66.90
2022-07-25T06:30:51.893Z,66.17
2022-07-25T06:31:59.082Z,65.45
2022-07-25T06:33:02.715Z,64.92
2022-07-25T06:34:09.615Z,64.17
2022-07-25T06:35:18.208Z,63.66
2022-07-25T06:36:24.703Z,63.18
2022-07-25T06:37:40.911Z,62.82
2022-07-25T06:38:44.291Z,62.23
2022-07-25T06:39:47.877Z,61.75
2022-07-25T06:40:51.402Z,61.36
2022-07-25T06:41:59.324Z,61.12
2022-07-25T06:43:09.573Z,60.20
2022-07-25T06:44:32.192Z,59.95
2022-07-25T06:45:35.842Z,58.81
2022-07-25T06:46:46.057Z,57.74
2022-07-25T06:47:49.978Z,57.84
2022-07-25T06:48:53.664Z,56.39
2022-07-25T06:50:00.240Z,55.84
2022-07-25T06:51:07.736Z,55.26
2022-07-25T06:52:11.490Z,55.19
2022-07-25T06:53:18.442Z,54.96
2022-07-25T06:54:23.942Z,54.89
2022-07-25T06:55:27.377Z,54.53
2022-07-25T06:56:54.041Z,53.92
2022-07-25T06:59:20.183Z,52.17
2022-07-25T07:00:24.444Z,51.83
2022-07-25T07:01:29.577Z,52.28
2022-07-25T07:02:38.666Z,52.58
2022-07-25T07:03:44.641Z,52.76
2022-07-25T07:04:51.151Z,51.81
2022-07-25T07:06:20.303Z,52.08
2022-07-25T07:07:29.850Z,51.63
2022-07-25T07:08:42.649Z,50.47
2022-07-25T07:09:49.478Z,49.52
2022-07-25T07:10:54.837Z,50.01
2022-07-25T07:11:59.413Z,48.15
2022-07-25T07:13:26.163Z,47.69
2022-07-25T07:14:48.429Z,47.24
2022-07-25T07:15:59.084Z,45.73
2022-07-25T07:17:17.242Z,46.50
2022-07-25T07:18:53.108Z,46.65
2022-07-25T07:20:14.048Z,46.11
2022-07-25T07:21:25.587Z,44.87
2022-07-25T07:23:04.930Z,43.59
2022-07-25T07:24:23.831Z,43.42
2022-07-25T07:25:36.349Z,43.33
2022-07-25T07:26:40.546Z,42.49
2022-07-25T07:27:47.382Z,42.19
2022-07-25T07:29:05.015Z,42.25
2022-07-25T07:30:18.546Z,42.49
2022-07-25T07:31:26.452Z,41.09
2022-07-25T07:32:29.854Z,41.58
2022-07-25T07:33:34.472Z,42.13
2022-07-25T07:34:42.438Z,41.91
2022-07-25T07:35:46.137Z,41.35
2022-07-25T07:37:06.715Z,42.21
2022-07-25T07:38:10.400Z,42.17
2022-07-25T07:39:14.403Z,41.54
2022-07-25T07:40:18.337Z,40.72
2022-07-25T07:41:22.129Z,40.28
2022-07-25T07:42:25.716Z,40.12
2022-07-25T07:43:32.127Z,40.22
2022-07-25T07:44:35.683Z,40.52
2022-07-25T07:45:39.251Z,40.43
2022-07-25T07:46:44.822Z,40.34
2022-07-25T07:47:49.734Z,40.60
2022-07-25T07:48:53.156Z,41.18
2022-07-25T07:49:56.819Z,40.54
2022-07-25T07:51:01.914Z,40.86
2022-07-25T07:52:05.508Z,41.00
2022-07-25T07:53:09.075Z,40.78
2022-07-25T07:54:34.023Z,40.84
2022-07-25T07:55:48.542Z,40.17
2022-07-25T07:56:52.085Z,39.95
2022-07-25T07:57:56.392Z,39.87
2022-07-25T07:58:59.804Z,40.82
2022-07-25T08:00:04.387Z,40.51
2022-07-25T08:01:07.971Z,40.35
2022-07-25T08:02:11.430Z,40.08
2022-07-25T08:03:20.721Z,40.07
2022-07-25T08:04:24.730Z,40.00
2022-07-25T08:05:37.943Z,40.14
2022-07-25T08:06:43.287Z,40.59
2022-07-25T08:07:46.693Z,40.04
2022-07-25T08:08:50.122Z,39.70
2022-07-25T08:09:53.818Z,40.28
2022-07-25T08:10:59.182Z,39.90
2022-07-25T08:12:03.150Z,39.53
2022-07-25T08:13:34.485Z,40.25
2022-07-25T08:14:37.933Z,40.07
2022-07-25T08:15:43.038Z,40.66
2022-07-25T08:16:46.633Z,40.67
2022-07-25T08:17:51.700Z,41.08
2022-07-25T08:18:55.110Z,40.51
2022-07-25T08:20:14.456Z,40.59
2022-07-25T08:21:22.311Z,40.86
2022-07-25T08:22:35.356Z,40.68
2022-07-25T08:23:39.575Z,40.04
2022-07-25T08:24:43.032Z,39.77
2022-07-25T08:25:47.254Z,39.68
2022-07-25T08:26:50.861Z,39.89
2022-07-25T08:27:54.455Z,39.54
2022-07-25T08:29:17.523Z,39.52
2022-07-25T08:30:21.475Z,39.59
2022-07-25T08:31:25.170Z,39.47
2022-07-25T08:32:29.158Z,39.55
2022-07-25T08:33:33.062Z,39.00
2022-07-25T08:34:36.513Z,38.50
2022-07-25T08:35:42.221Z,38.70
2022-07-25T08:36:45.663Z,38.98
2022-07-25T08:37:49.696Z,38.81
2022-07-25T08:38:53.203Z,38.41
2022-07-25T08:39:56.956Z,38.67
2022-07-25T08:41:00.784Z,38.75
2022-07-25T08:42:09.087Z,39.36
2022-07-25T08:43:16.450Z,39.14
2022-07-25T08:44:21.739Z,38.38
2022-07-25T08:45:28.187Z,38.32
2022-07-25T08:46:31.899Z,37.87
2022-07-25T08:47:36.883Z,37.71
2022-07-25T08:48:40.742Z,38.36
2022-07-25T08:49:44.653Z,37.57
2022-07-25T08:50:49.692Z,37.11
2022-07-25T08:51:53.336Z,36.75
2022-07-25T08:53:22.954Z,37.07
2022-07-25T08:54:22.853Z,37.11
2022-07-25T08:55:28.961Z,37.16
2022-07-25T08:56:32.387Z,37.80
2022-07-25T08:57:38.347Z,37.38
2022-07-25T08:58:43.993Z,37.49
2022-07-25T08:59:47.838Z,37.26
2022-07-25T09:00:51.992Z,37.86
2022-07-25T09:01:55.624Z,37.68
2022-07-25T09:03:06.720Z,37.29
2022-07-25T09:04:11.066Z,37.33
2022-07-25T09:05:14.758Z,37.10
2022-07-25T09:06:20.635Z,37.12
2022-07-25T09:07:31.921Z,36.85
2022-07-25T09:08:35.203Z,37.36
2022-07-25T09:09:39.477Z,37.47
2022-07-25T09:10:48.663Z,36.83
2022-07-25T09:11:52.313Z,36.92
2022-07-25T09:13:02.009Z,36.86
2022-07-25T09:14:14.920Z,37.36
2022-07-25T09:15:38.266Z,37.29
2022-07-25T09:16:44.997Z,37.32
2022-07-25T09:17:52.447Z,37.43
2022-07-25T09:19:16.058Z,36.58
2022-07-25T09:20:21.753Z,36.35
2022-07-25T09:21:25.186Z,37.12
2022-07-25T09:22:30.583Z,36.76
2022-07-25T09:23:38.805Z,36.81
2022-07-25T09:24:46.064Z,36.29
2022-07-25T09:25:49.552Z,36.51
2022-07-25T09:26:55.408Z,36.68
2022-07-25T09:28:16.625Z,36.36
2022-07-25T09:29:34.762Z,36.10
2022-07-25T09:30:40.074Z,36.24
2022-07-25T09:31:43.716Z,35.89
2022-07-25T09:32:47.393Z,36.09
2022-07-25T09:34:00.850Z,36.63
2022-07-25T09:35:04.544Z,35.77
2022-07-25T09:36:12.463Z,36.45
2022-07-25T09:37:25.656Z,36.01
2022-07-25T09:38:28.906Z,36.79
2022-07-25T09:39:48.647Z,36.67
2022-07-25T09:40:56.535Z,36.51
2022-07-25T09:42:00.069Z,36.53
2022-07-25T09:43:03.572Z,36.66
2022-07-25T09:44:23.897Z,37.93
2022-07-25T09:45:31.435Z,37.42
2022-07-25T09:46:35.090Z,36.83
2022-07-25T09:48:01.292Z,36.46
2022-07-25T09:49:05.025Z,35.79
2022-07-25T09:50:09.918Z,36.35
2022-07-25T09:51:13.571Z,35.82
2022-07-25T09:52:18.187Z,36.74
2022-07-25T09:53:21.573Z,37.27
2022-07-25T09:54:25.013Z,36.27
2022-07-25T09:55:29.597Z,35.84
2022-07-25T09:56:35.723Z,35.87
2022-07-25T09:57:40.145Z,36.14
2022-07-25T09:58:43.913Z,37.10
2022-07-25T09:59:47.397Z,37.33
2022-07-25T10:00:54.667Z,36.70
2022-07-25T10:02:12.282Z,36.15
2022-07-25T10:03:21.523Z,36.59
2022-07-25T10:04:57.569Z,35.88
2022-07-25T10:06:21.177Z,36.35
2022-07-25T10:07:31.503Z,36.08
2022-07-25T10:08:40.045Z,35.71
2022-07-25T10:09:49.044Z,36.34
2022-07-25T10:10:52.696Z,37.12
2022-07-25T10:12:13.424Z,36.55
2022-07-25T10:13:29.800Z,35.98
2022-07-25T10:14:35.287Z,35.69
2022-07-25T10:15:42.786Z,35.41
2022-07-25T10:16:47.719Z,34.97
2022-07-25T10:18:03.822Z,35.56
2022-07-25T10:19:07.285Z,36.18
2022-07-25T10:20:11.229Z,36.40
2022-07-25T10:21:26.395Z,35.94
2022-07-25T10:22:57.804Z,37.24
2022-07-25T10:24:05.851Z,35.71
2022-07-25T10:25:20.849Z,35.43
2022-07-25T10:26:26.049Z,36.18
2022-07-25T10:27:29.497Z,36.25
2022-07-25T10:28:41.909Z,35.68
2022-07-25T10:29:53.742Z,34.59
2022-07-25T10:31:03.082Z,34.98
2022-07-25T10:32:11.768Z,35.09
2022-07-25T10:33:19.170Z,35.85
2022-07-25T10:34:33.732Z,36.04
2022-07-25T10:35:37.572Z,35.97
2022-07-25T10:36:52.033Z,36.18
2022-07-25T10:37:59.360Z,35.26
2022-07-25T10:39:02.968Z,35.08
2022-07-25T10:40:07.163Z,35.96
2022-07-25T10:41:13.096Z,36.34
2022-07-25T10:42:20.976Z,36.69
2022-07-25T10:43:27.803Z,37.51
2022-07-25T10:44:49.086Z,35.74
2022-07-25T10:45:53.969Z,35.89
2022-07-25T10:47:09.143Z,35.31
2022-07-25T10:48:21.480Z,35.50
2022-07-25T10:49:32.049Z,36.35
2022-07-25T10:50:54.838Z,35.25
2022-07-25T10:52:04.822Z,34.97
2022-07-25T10:53:09.653Z,34.67
2022-07-25T10:54:17.285Z,33.93
2022-07-25T10:55:24.428Z,33.53
2022-07-25T10:56:29.295Z,33.45
2022-07-25T10:57:33.049Z,33.34
2022-07-25T10:58:50.167Z,33.11
2022-07-25T10:59:53.942Z,33.93
2022-07-25T11:00:58.165Z,33.33
2022-07-25T11:02:03.517Z,33.14
2022-07-25T11:03:07.158Z,32.67
2022-07-25T11:04:16.150Z,32.99
2022-07-25T11:05:19.851Z,33.55
2022-07-25T11:06:34.459Z,32.95
2022-07-25T11:07:37.803Z,32.74
2022-07-25T11:08:42.594Z,32.68
2022-07-25T11:10:00.198Z,32.71
2022-07-25T11:11:04.228Z,32.66
2022-07-25T11:12:08.507Z,32.39
2022-07-25T11:13:15.392Z,32.27
2022-07-25T11:14:23.063Z,32.74
2022-07-25T11:15:26.406Z,32.49
2022-07-25T11:16:30.279Z,32.44
2022-07-25T11:17:34.785Z,32.64
2022-07-25T11:18:42.629Z,32.37
2022-07-25T11:20:01.666Z,32.25
2022-07-25T11:21:09.649Z,31.88
2022-07-25T11:22:13.608Z,31.94
2022-07-25T11:23:22.235Z,32.23
2022-07-25T11:24:40.725Z,31.66
2022-07-25T11:25:44.561Z,31.88
2022-07-25T11:26:53.739Z,31.96
2022-07-25T11:27:58.529Z,31.80
2022-07-25T11:29:02.031Z,31.96
2022-07-25T11:30:17.606Z,31.65
2022-07-25T11:31:23.299Z,32.33
2022-07-25T11:32:26.817Z,33.02
2022-07-25T11:33:30.147Z,32.96
2022-07-25T11:34:37.032Z,32.81
2022-07-25T11:35:41.019Z,32.39
2022-07-25T11:36:44.771Z,32.75
2022-07-25T11:37:50.280Z,32.54
2022-07-25T11:38:53.996Z,32.13
2022-07-25T11:39:58.088Z,31.28
2022-07-25T11:41:02.312Z,31.38
2022-07-25T11:42:17.672Z,31.22
2022-07-25T11:43:23.014Z,30.93
2022-07-25T11:44:37.307Z,30.70
2022-07-25T11:45:42.245Z,30.92
2022-07-25T11:46:45.993Z,31.26
2022-07-25T11:48:10.925Z,31.23
2022-07-25T11:49:15.408Z,31.61
2022-07-25T11:50:30.358Z,31.24
2022-07-25T11:51:38.919Z,30.81
2022-07-25T11:52:44.211Z,30.60
2022-07-25T11:53:51.001Z,30.75
2022-07-25T11:54:57.468Z,31.16
2022-07-25T11:56:40.767Z,31.34
2022-07-25T11:57:46.265Z,31.25
2022-07-25T11:59:00.268Z,30.86
2022-07-25T12:00:10.586Z,30.96
2022-07-25T12:01:15.979Z,30.99
2022-07-25T12:02:27.707Z,31.34
2022-07-25T12:03:38.469Z,31.23
2022-07-25T12:04:42.058Z,30.30
2022-07-25T12:05:45.784Z,30.86
2022-07-25T12:06:51.333Z,30.57
2022-07-25T12:07:55.749Z,30.44
2022-07-25T12:08:59.146Z,30.10
2022-07-25T12:10:03.018Z,29.75
2022-07-25T12:11:21.658Z,30.06
2022-07-25T12:12:25.320Z,30.25
2022-07-25T12:13:30.656Z,30.67
2022-07-25T12:14:43.753Z,30.88
2022-07-25T12:15:47.722Z,30.96
2022-07-25T12:16:51.401Z,31.38
2022-07-25T12:17:56.658Z,31.40
2022-07-25T12:19:00.493Z,31.11
2022-07-25T12:20:10.626Z,30.00
2022-07-25T12:21:14.442Z,29.01
2022-07-25T12:22:17.909Z,28.87
2022-07-25T12:23:24.414Z,29.02
2022-07-25T12:24:27.732Z,28.88
2022-07-25T12:25:32.594Z,28.03
2022-07-25T12:26:36.142Z,28.21
2022-07-25T12:27:42.395Z,28.52
2022-07-25T12:28:45.961Z,28.48
2022-07-25T12:29:50.112Z,28.56
2022-07-25T12:30:56.745Z,28.71
2022-07-25T12:32:00.567Z,29.21
2022-07-25T12:33:03.933Z,29.45
2022-07-25T12:34:07.702Z,29.67
2022-07-25T12:35:13.469Z,29.39
2022-07-25T12:36:17.130Z,29.13
2022-07-25T12:37:21.973Z,28.92
2022-07-25T12:38:25.891Z,29.37
2022-07-25T12:39:29.442Z,29.12
2022-07-25T12:40:33.859Z,29.46
2022-07-25T12:41:37.175Z,29.69
2022-07-25T12:42:40.699Z,28.65
2022-07-25T12:43:44.120Z,29.09
2022-07-25T12:44:47.420Z,28.88
2022-07-25T12:45:50.957Z,27.18
2022-07-25T12:46:54.468Z,26.85
2022-07-25T12:47:57.874Z,26.09
2022-07-25T12:49:01.590Z,25.80
2022-07-25T12:50:06.603Z,25.28
2022-07-25T12:51:10.160Z,26.01
2022-07-25T12:52:13.870Z,26.39
2022-07-25T12:53:17.520Z,25.91
2022-07-25T12:54:22.692Z,26.14
2022-07-25T12:55:26.713Z,26.45
2022-07-25T12:56:30.260Z,26.48
2022-07-25T12:57:35.367Z,26.29
2022-07-25T12:58:38.936Z,25.29
2022-07-25T12:59:42.912Z,23.66
2022-07-25T13:00:46.914Z,23.28
2022-07-25T13:01:50.537Z,23.35
2022-07-25T13:02:56.267Z,23.94
2022-07-25T13:03:59.605Z,24.37
2022-07-25T13:05:03.607Z,24.93
2022-07-25T13:06:07.492Z,25.23
2022-07-25T13:07:10.856Z,25.10
2022-07-25T13:08:14.313Z,24.79
2022-07-25T13:09:18.412Z,25.12
2022-07-25T13:10:22.106Z,25.29
2022-07-25T13:11:26.030Z,25.69
2022-07-25T13:12:29.387Z,25.80
2022-07-25T13:13:32.845Z,25.37
2022-07-25T13:14:36.986Z,25.33
2022-07-25T13:15:41.224Z,25.06
2022-07-25T13:16:47.045Z,23.89
2022-07-25T13:17:51.138Z,23.72
2022-07-25T13:18:55.038Z,24.33
2022-07-25T13:19:58.778Z,24.22
2022-07-25T13:21:03.730Z,23.80
2022-07-25T13:22:08.049Z,23.02
2022-07-25T13:23:11.788Z,22.63
2022-07-25T13:24:15.652Z,23.03
2022-07-25T13:25:19.970Z,23.35
2022-07-25T13:26:24.710Z,23.77
2022-07-25T13:27:28.557Z,22.94
2022-07-25T13:28:32.274Z,23.01
2022-07-25T13:29:36.911Z,23.76
2022-07-25T13:30:40.587Z,25.21
2022-07-25T13:31:44.831Z,25.70
2022-07-25T13:32:49.149Z,25.49
2022-07-25T13:33:53.324Z,23.98
2022-07-25T13:34:57.471Z,24.44
2022-07-25T13:36:01.431Z,24.91
2022-07-25T13:37:05.880Z,24.83
2022-07-25T13:38:12.197Z,24.08
2022-07-25T13:39:24.722Z,24.60
2022-07-25T13:40:35.122Z,24.70
2022-07-25T13:41:45.420Z,24.75
2022-07-25T13:42:53.774Z,25.12
2022-07-25T13:44:03.079Z,25.34
2022-07-25T13:45:08.893Z,24.86
2022-07-25T13:46:12.509Z,24.24
2022-07-25T13:47:16.210Z,24.63
2022-07-25T13:48:29.510Z,24.70
2022-07-25T13:49:33.860Z,25.12
2022-07-25T13:50:37.602Z,24.97
2022-07-25T13:51:42.488Z,24.74
2022-07-25T13:52:54.253Z,24.52
2022-07-25T13:54:05.117Z,24.80
2022-07-25T13:55:10.557Z,24.60
2022-07-25T13:56:14.767Z,24.02
2022-07-25T13:57:18.395Z,23.37
2022-07-25T13:58:22.201Z,22.95
2022-07-25T13:59:25.652Z,23.23
2022-07-25T14:00:32.125Z,23.16
2022-07-25T14:01:40.921Z,22.90
2022-07-25T14:02:44.780Z,23.29
2022-07-25T14:03:48.225Z,23.76
2022-07-25T14:04:51.628Z,23.66
2022-07-25T14:05:55.139Z,23.65
2022-07-25T14:06:59.837Z,23.76
2022-07-25T14:08:03.867Z,23.82
2022-07-25T14:09:07.478Z,23.51
2022-07-25T14:10:10.879Z,24.17
2022-07-25T14:11:14.323Z,23.51
2022-07-25T14:12:17.543Z,23.92
2022-07-25T14:13:20.609Z,23.90
2022-07-25T14:14:24.112Z,23.93
2022-07-25T14:15:28.294Z,24.31
2022-07-25T14:16:34.570Z,24.52
2022-07-25T14:17:39.098Z,24.24
2022-07-25T14:18:42.544Z,24.58
2022-07-25T14:19:45.792Z,24.88
2022-07-25T14:20:50.413Z,24.98
2022-07-25T14:21:53.765Z,24.40